Time;durP1;ratioP1;P1;durP2;ratioP2;P2;SDS_P1;SDS_P2;PMS_P1;PMS_P2;Temp;Humidity;BMP_temperature;BMP_pressure;BME280_temperature;BME280_humidity;BME280_pressure;Samples;Min_cycle;Max_cycle;Signal;HPM_P1;HPM_P2
2021/12/19 00:02:20;;;;;;;0.52;0.52;;;4.60;99.90;;;;;;5071982;28;20037;-73
2021/12/19 00:09:58;;;;;;;0.10;0.10;;;4.60;99.90;;;;;;5093275;28;20115;-73
2021/12/19 00:12:23;;;;;;;0.80;0.80;;;4.50;99.90;;;;;;5093507;28;20103;-73
2021/12/19 00:14:49;;;;;;;1.88;1.77;;;4.60;99.90;;;;;;5093491;28;20039;-73
2021/12/19 00:17:15;;;;;;;0.10;0.10;;;4.60;99.90;;;;;;5093645;28;20024;-73
2021/12/19 00:19:41;;;;;;;0.20;0.20;;;4.50;99.90;;;;;;5093451;28;20035;-73
2021/12/19 00:22:07;;;;;;;0.90;0.90;;;4.40;99.90;;;;;;5093410;28;20050;-73
2021/12/19 00:24:33;;;;;;;0.68;0.68;;;4.20;99.90;;;;;;5093035;28;20036;-74
2021/12/19 00:26:59;;;;;;;0.20;0.20;;;4.30;99.90;;;;;;5091838;28;20039;-73
2021/12/19 00:29:25;;;;;;;0.10;0.10;;;4.30;99.90;;;;;;5092156;28;20032;-72
2021/12/19 00:31:51;;;;;;;1.70;0.80;;;4.30;99.90;;;;;;5091753;28;20040;-73
2021/12/19 00:34:16;;;;;;;0.10;0.10;;;4.30;99.90;;;;;;5093074;28;20073;-72
2021/12/19 00:36:43;;;;;;;3.17;2.47;;;4.20;99.90;;;;;;5092085;28;20024;-72
2021/12/19 00:39:09;;;;;;;0.28;0.28;;;4.20;99.90;;;;;;5075490;28;20082;-72
2021/12/19 00:41:35;;;;;;;0.10;0.10;;;4.10;99.90;;;;;;5071489;28;20486;-72
2021/12/19 00:44:11;;;;;;;0.88;0.85;;;4.20;99.90;;;;;;5088272;28;20059;-72
2021/12/19 00:46:51;;;;;;;0.63;0.63;;;4.30;99.90;;;;;;5072492;28;20044;-72
2021/12/19 00:49:24;;;;;;;0.13;0.13;;;4.20;99.90;;;;;;5071481;28;20032;-72
2021/12/19 00:51:53;;;;;;;3.03;2.05;;;4.10;99.90;;;;;;5072476;28;20028;-72
2021/12/19 00:54:19;;;;;;;4.22;2.03;;;4.20;99.90;;;;;;5071531;28;20028;-72
2021/12/19 00:56:48;;;;;;;0.35;0.35;;;4.20;99.90;;;;;;5071177;28;20035;-72
2021/12/19 00:59:15;;;;;;;0.10;0.10;;;4.20;99.90;;;;;;5072274;28;20044;-73
2021/12/19 01:01:42;;;;;;;0.40;0.40;;;4.10;99.90;;;;;;5072282;28;20090;-73
2021/12/19 01:04:15;;;;;;;0.55;0.55;;;4.10;99.90;;;;;;5071134;28;20037;-73
2021/12/19 01:06:44;;;;;;;1.90;1.75;;;4.10;99.90;;;;;;5072231;28;20071;-72
2021/12/19 01:09:11;;;;;;;4.57;2.47;;;4.10;99.90;;;;;;5088187;28;20025;-72
2021/12/19 01:11:38;;;;;;;0.05;0.05;;;4.10;99.90;;;;;;5091080;28;20028;-72
2021/12/19 01:14:06;;;;;;;0.10;0.10;;;4.10;99.90;;;;;;5092317;28;20073;-72
2021/12/19 01:16:32;;;;;;;0.10;0.10;;;4.10;99.90;;;;;;5091055;28;20028;-72
2021/12/19 01:18:58;;;;;;;0.85;0.85;;;4.10;99.90;;;;;;5091267;28;20507;-73
2021/12/19 01:21:24;;;;;;;0.20;0.20;;;4.10;99.90;;;;;;5091075;28;20024;-72
2021/12/19 01:23:50;;;;;;;1.48;1.38;;;4.10;99.90;;;;;;5091082;28;20431;-73
2021/12/19 01:26:16;;;;;;;0.00;0.00;;;4.10;99.90;;;;;;5091933;28;20489;-72
2021/12/19 01:28:43;;;;;;;0.63;0.63;;;4.10;99.90;;;;;;5091028;28;20028;-73
2021/12/19 01:31:11;;;;;;;0.15;0.13;;;4.20;99.90;;;;;;5090960;28;20073;-72
2021/12/19 01:33:37;;;;;;;0.50;0.50;;;4.20;99.90;;;;;;5092196;28;20032;-73
2021/12/19 01:36:04;;;;;;;0.15;0.13;;;4.20;99.90;;;;;;5091814;28;20028;-72
2021/12/19 01:38:30;;;;;;;6.65;3.03;;;4.20;99.90;;;;;;5080459;28;20028;-73
2021/12/19 01:40:57;;;;;;;0.10;0.10;;;4.20;99.90;;;;;;5071447;28;20070;-73
2021/12/19 01:43:25;;;;;;;0.22;0.22;;;4.20;99.90;;;;;;5071934;28;20055;-73
2021/12/19 01:45:53;;;;;;;0.57;0.57;;;4.20;99.90;;;;;;5087043;28;20567;-72
2021/12/19 01:48:20;;;;;;;0.10;0.10;;;4.30;99.90;;;;;;5070418;28;20040;-72
2021/12/19 01:50:46;;;;;;;0.25;0.25;;;4.30;99.90;;;;;;5071752;28;20381;-73
2021/12/19 01:53:13;;;;;;;2.50;2.20;;;4.30;99.90;;;;;;5070309;28;20032;-74
2021/12/19 01:55:45;;;;;;;1.88;0.85;;;4.30;99.90;;;;;;5070673;28;20032;-74
2021/12/19 01:58:13;;;;;;;0.45;0.45;;;4.40;99.90;;;;;;5071671;28;20059;-73
2021/12/19 02:00:47;;;;;;;0.20;0.20;;;4.40;99.90;;;;;;5070821;28;20028;-73
2021/12/19 02:03:13;;;;;;;0.52;0.52;;;4.20;99.90;;;;;;5070112;28;20063;-74
2021/12/19 02:05:39;;;;;;;1.52;1.45;;;4.20;99.90;;;;;;5071743;28;20028;-74
2021/12/19 02:08:08;;;;;;;0.10;0.10;;;4.20;99.90;;;;;;5060563;28;20515;-74
2021/12/19 02:10:34;;;;;;;2.45;1.02;;;4.20;99.90;;;;;;5092046;28;20036;-71
2021/12/19 02:13:02;;;;;;;2.63;1.55;;;4.10;99.90;;;;;;5090422;28;20032;-72
2021/12/19 02:15:31;;;;;;;0.10;0.10;;;4.10;99.90;;;;;;5090724;28;20036;-72
2021/12/19 02:18:14;;;;;;;0.63;0.63;;;4.10;99.90;;;;;;5091732;28;20042;-73
2021/12/19 02:20:50;;;;;;;0.22;0.22;;;4.10;99.90;;;;;;5090701;28;20040;-72
2021/12/19 02:23:19;;;;;;;0.68;0.68;;;4.10;99.90;;;;;;5092098;28;20039;-73
2021/12/19 02:25:46;;;;;;;0.35;0.35;;;4.00;99.90;;;;;;5090253;28;20024;-72
2021/12/19 02:28:12;;;;;;;0.10;0.10;;;4.10;99.90;;;;;;5092554;28;20046;-72
2021/12/19 02:30:39;;;;;;;2.00;0.65;;;4.10;99.90;;;;;;5094772;28;20056;-73
2021/12/19 02:33:14;;;;;;;0.10;0.10;;;4.00;99.90;;;;;;5094544;28;20564;-72
2021/12/19 02:35:44;;;;;;;0.10;0.10;;;4.00;99.90;;;;;;5095551;28;20484;-72
2021/12/19 02:48:51;;;;;;;0.52;0.52;;;4.00;99.90;;;;;;5074948;28;20040;-73
2021/12/19 02:51:16;;;;;;;0.50;0.50;;;4.10;99.90;;;;;;5075045;28;20099;-73
2021/12/19 02:53:45;;;;;;;3.63;2.38;;;4.10;99.90;;;;;;5073686;28;20692;-73
2021/12/19 02:56:13;;;;;;;0.05;0.05;;;4.20;99.90;;;;;;5074894;28;20439;-73
2021/12/19 02:58:42;;;;;;;0.32;0.32;;;4.10;99.90;;;;;;5074916;28;20113;-73
2021/12/19 03:01:13;;;;;;;2.13;2.03;;;4.00;99.90;;;;;;5073297;28;20036;-73
2021/12/19 03:03:39;;;;;;;0.47;0.47;;;4.10;99.90;;;;;;5073609;28;20499;-73
2021/12/19 03:06:05;;;;;;;0.47;0.47;;;4.10;99.90;;;;;;5074952;28;20115;-73
2021/12/19 03:08:33;;;;;;;0.77;0.73;;;4.10;99.90;;;;;;5085741;28;20059;-73
2021/12/19 03:19:12;;;;;;;0.20;0.20;;;4.20;99.90;;;;;;5093755;28;20036;-72
2021/12/19 03:21:37;;;;;;;1.85;1.52;;;4.10;99.90;;;;;;5094863;28;20024;-72
2021/12/19 03:24:04;;;;;;;0.10;0.10;;;4.10;99.90;;;;;;5094804;28;20028;-72
2021/12/19 03:26:31;;;;;;;0.40;0.40;;;4.20;99.90;;;;;;5093061;28;20028;-72
2021/12/19 03:28:56;;;;;;;0.52;0.52;;;4.20;99.90;;;;;;5093521;28;20485;-73
2021/12/19 03:31:22;;;;;;;1.08;1.08;;;4.20;99.90;;;;;;5094595;28;20039;-73
2021/12/19 03:33:48;;;;;;;0.10;0.10;;;4.20;99.90;;;;;;5093411;28;20024;-72
2021/12/19 03:36:14;;;;;;;0.20;0.20;;;4.10;99.90;;;;;;5093757;28;20035;-72
2021/12/19 03:38:43;;;;;;;1.95;1.85;;;4.10;99.90;;;;;;5093544;28;20066;-72
2021/12/19 03:41:20;;;;;;;1.75;1.65;;;4.10;99.90;;;;;;5091223;28;20034;-73
2021/12/19 03:43:46;;;;;;;0.82;0.82;;;4.10;99.90;;;;;;5091612;28;20051;-72
2021/12/19 03:46:13;;;;;;;5.05;2.38;;;4.10;99.90;;;;;;5092781;28;20059;-72
2021/12/19 03:48:39;;;;;;;2.28;0.90;;;4.10;99.90;;;;;;5092299;28;20028;-72
2021/12/19 03:51:05;;;;;;;9.88;1.70;;;4.10;99.90;;;;;;5093791;28;20123;-73
2021/12/19 03:53:31;;;;;;;0.10;0.10;;;4.10;99.90;;;;;;5093747;28;20130;-73
2021/12/19 03:55:57;;;;;;;0.82;0.82;;;4.00;99.90;;;;;;5094029;28;20036;-73
2021/12/19 03:58:23;;;;;;;0.70;0.70;;;4.10;99.90;;;;;;5092385;28;20066;-73
2021/12/19 04:00:51;;;;;;;0.10;0.10;;;4.00;99.90;;;;;;5109787;28;20074;-73
2021/12/19 04:03:20;;;;;;;0.10;0.10;;;4.10;99.90;;;;;;5093521;28;20024;-72
2021/12/19 04:05:51;;;;;;;1.08;1.08;;;4.10;99.90;;;;;;5092386;28;20056;-73
2021/12/19 04:08:19;;;;;;;0.38;0.38;;;4.10;99.90;;;;;;5092221;28;20085;-73
2021/12/19 04:10:47;;;;;;;4.70;2.60;;;4.10;99.90;;;;;;5092303;28;20055;-72
2021/12/19 04:13:15;;;;;;;2.92;1.83;;;4.10;99.90;;;;;;5091927;28;20434;-72
2021/12/19 04:15:41;;;;;;;0.10;0.10;;;4.00;99.90;;;;;;5092170;28;20034;-74
2021/12/19 04:18:07;;;;;;;4.32;2.88;;;4.10;99.90;;;;;;5092243;28;20111;-73
2021/12/19 04:20:33;;;;;;;1.40;1.35;;;4.00;99.90;;;;;;5093828;28;20043;-73
2021/12/19 04:22:59;;;;;;;2.78;1.88;;;4.00;99.90;;;;;;5093345;28;20370;-74
2021/12/19 04:25:24;;;;;;;0.32;0.32;;;4.00;99.90;;;;;;5093385;28;20032;-74
2021/12/19 04:27:51;;;;;;;2.63;1.15;;;4.10;99.90;;;;;;5093200;28;20085;-74
2021/12/19 04:30:24;;;;;;;0.38;0.38;;;4.10;99.90;;;;;;5091748;28;20123;-74
2021/12/19 04:32:59;;;;;;;0.75;0.75;;;4.10;99.90;;;;;;5092219;28;20079;-73
2021/12/19 04:35:31;;;;;;;0.15;0.15;;;4.10;99.90;;;;;;5091611;28;20040;-74
2021/12/19 04:40:41;;;;;;;0.17;0.17;;;4.10;99.90;;;;;;5092867;28;20040;-74
2021/12/19 04:54:57;;;;;;;0.10;0.10;;;4.20;99.90;;;;;;5092749;28;20028;-75
2021/12/19 04:59:52;;;;;;;1.20;1.20;;;4.30;99.90;;;;;;5092581;28;20117;-74
2021/12/19 05:05:18;;;;;;;0.10;0.10;;;4.40;99.90;;;;;;5092632;28;20064;-74
2021/12/19 05:15:51;;;;;;;0.45;0.45;;;4.30;99.90;;;;;;5092749;28;20107;-73
2021/12/19 05:18:19;;;;;;;0.50;0.50;;;4.20;99.90;;;;;;5092134;28;20035;-73
2021/12/19 05:20:55;;;;;;;0.45;0.45;;;4.40;99.90;;;;;;5092568;28;20086;-73
2021/12/19 05:23:34;;;;;;;2.33;2.15;;;4.40;99.90;;;;;;5091027;28;20032;-73
2021/12/19 05:26:01;;;;;;;1.48;1.38;;;4.40;99.90;;;;;;5108210;28;20042;-73
2021/12/19 05:28:27;;;;;;;0.20;0.20;;;4.50;99.90;;;;;;5090735;28;20028;-73
2021/12/19 05:30:52;;;;;;;1.88;1.77;;;4.60;99.90;;;;;;5107761;28;20543;-73
2021/12/19 05:33:18;;;;;;;4.22;2.10;;;4.50;99.90;;;;;;5090830;28;20581;-73
2021/12/19 05:46:29;;;;;;;1.83;1.73;;;4.30;99.90;;;;;;5091406;28;20050;-73
2021/12/19 05:48:56;;;;;;;1.55;1.23;;;4.30;99.90;;;;;;5090366;28;20028;-73
2021/12/19 05:51:21;;;;;;;4.57;1.55;;;4.20;99.90;;;;;;5091934;28;20035;-73
2021/12/19 05:53:47;;;;;;;1.83;1.73;;;4.30;99.90;;;;;;5091620;28;20025;-73
2021/12/19 05:56:13;;;;;;;0.43;0.43;;;4.30;99.90;;;;;;5091973;28;20039;-73
2021/12/19 05:58:39;;;;;;;0.10;0.10;;;4.30;99.90;;;;;;5090354;28;20032;-73
2021/12/19 06:01:05;;;;;;;0.57;0.57;;;4.30;99.90;;;;;;5090926;28;20119;-73
2021/12/19 06:03:31;;;;;;;0.43;0.43;;;4.40;99.90;;;;;;5093740;28;20460;-72
2021/12/19 06:05:56;;;;;;;0.10;0.10;;;4.30;99.90;;;;;;5095635;28;20626;-72
2021/12/19 06:08:25;;;;;;;0.68;0.68;;;4.30;99.90;;;;;;5094275;28;20085;-73
2021/12/19 06:10:51;;;;;;;0.47;0.47;;;4.30;99.90;;;;;;5078001;28;20020;-73
2021/12/19 06:13:17;;;;;;;0.90;0.90;;;4.30;99.90;;;;;;5095539;28;20085;-73
2021/12/19 06:15:43;;;;;;;1.48;1.23;;;4.30;99.90;;;;;;5095506;28;20105;-73
2021/12/19 06:18:08;;;;;;;1.38;1.27;;;4.30;99.90;;;;;;5094656;28;20440;-72
2021/12/19 06:20:34;;;;;;;0.38;0.38;;;4.30;99.90;;;;;;5095292;28;20028;-72
2021/12/19 06:23:01;;;;;;;0.10;0.10;;;4.30;99.90;;;;;;5095840;28;20023;-72
2021/12/19 06:25:28;;;;;;;0.75;0.75;;;4.30;99.90;;;;;;5094293;28;20036;-72
2021/12/19 06:27:54;;;;;;;0.10;0.10;;;4.30;99.90;;;;;;5094057;28;20032;-72
2021/12/19 06:30:20;;;;;;;0.85;0.85;;;4.30;99.90;;;;;;5094382;28;20039;-75
2021/12/19 06:32:46;;;;;;;1.75;1.00;;;4.40;99.90;;;;;;5095362;28;20028;-73
2021/12/19 06:35:18;;;;;;;2.42;2.30;;;4.30;99.90;;;;;;5077219;28;20029;-72
2021/12/19 06:37:50;;;;;;;4.65;2.58;;;4.30;99.90;;;;;;5068124;28;20366;-71
2021/12/19 06:40:20;;;;;;;0.93;0.90;;;4.30;99.90;;;;;;5075752;28;20043;-71
2021/12/19 06:42:47;;;;;;;0.95;0.95;;;4.30;99.90;;;;;;5074379;28;20400;-71
2021/12/19 06:45:13;;;;;;;0.40;0.40;;;4.30;99.90;;;;;;5058871;28;20036;-71
2021/12/19 06:47:40;;;;;;;0.43;0.43;;;4.30;99.90;;;;;;5053388;28;20489;-71
2021/12/19 06:50:08;;;;;;;1.02;0.98;;;4.30;99.90;;;;;;5054366;28;20029;-70
2021/12/19 06:52:35;;;;;;;1.00;1.00;;;4.30;99.90;;;;;;5053173;28;20120;-78
2021/12/19 06:55:03;;;;;;;6.10;1.70;;;4.30;99.90;;;;;;5053158;28;20474;-75
2021/12/19 06:57:29;;;;;;;0.75;0.40;;;4.30;99.90;;;;;;5053265;28;20055;-75
2021/12/19 06:59:55;;;;;;;0.25;0.25;;;4.40;99.90;;;;;;5054447;28;20037;-75
2021/12/19 07:02:21;;;;;;;0.10;0.10;;;4.30;99.90;;;;;;5053098;28;20516;-75
2021/12/19 07:04:47;;;;;;;0.55;0.55;;;4.30;99.90;;;;;;5064978;28;20484;-74
2021/12/19 07:07:13;;;;;;;0.43;0.43;;;4.30;99.90;;;;;;5094636;28;20027;-75
2021/12/19 07:09:40;;;;;;;0.60;0.60;;;4.40;99.90;;;;;;5076521;28;20035;-75
2021/12/19 07:12:07;;;;;;;0.20;0.20;;;4.50;99.90;;;;;;5094512;28;20032;-75
2021/12/19 07:14:34;;;;;;;1.42;1.35;;;4.50;99.90;;;;;;5094165;28;20040;-78
2021/12/19 07:17:00;;;;;;;0.43;0.43;;;4.50;99.90;;;;;;5093231;28;20516;-79
2021/12/19 07:19:27;;;;;;;9.32;1.38;;;4.60;99.90;;;;;;5094410;28;20488;-78
2021/12/19 07:21:52;;;;;;;0.52;0.52;;;4.60;99.90;;;;;;5094386;28;20039;-77
2021/12/19 07:24:18;;;;;;;0.38;0.38;;;4.60;99.90;;;;;;5094273;28;20032;-76
2021/12/19 07:26:44;;;;;;;1.00;1.00;;;4.50;99.90;;;;;;5084666;28;20037;-77
2021/12/19 07:29:10;;;;;;;0.10;0.10;;;4.50;99.90;;;;;;5074173;28;20185;-79
2021/12/19 07:31:37;;;;;;;0.90;0.90;;;4.40;99.90;;;;;;5073944;28;20043;-79
2021/12/19 07:34:05;;;;;;;3.13;1.52;;;4.50;99.90;;;;;;5072846;28;20024;-79
2021/12/19 07:36:48;;;;;;;0.35;0.35;;;4.50;99.90;;;;;;5052461;28;20033;-69
2021/12/19 07:41:49;;;;;;;0.47;0.47;;;4.40;99.90;;;;;;5054087;28;20060;-76
2021/12/19 07:44:14;;;;;;;1.85;1.30;;;4.50;99.90;;;;;;5054156;28;20727;-77
2021/12/19 07:46:40;;;;;;;0.30;0.30;;;4.50;99.90;;;;;;5053489;28;20052;-78
2021/12/19 07:49:06;;;;;;;3.13;1.55;;;4.50;99.90;;;;;;5053654;28;20033;-78
2021/12/19 07:51:32;;;;;;;2.15;2.05;;;4.60;99.90;;;;;;5052143;28;20143;-78
2021/12/19 07:53:57;;;;;;;0.40;0.40;;;4.50;99.90;;;;;;5053856;28;20484;-79
2021/12/19 07:56:23;;;;;;;1.75;0.85;;;4.50;99.90;;;;;;5053381;28;20078;-79
2021/12/19 07:58:49;;;;;;;1.70;1.15;;;4.50;99.90;;;;;;5052147;28;20107;-78
2021/12/19 08:01:15;;;;;;;10.35;1.40;;;4.50;99.90;;;;;;5053369;28;20554;-79
2021/12/19 08:03:41;;;;;;;0.98;0.98;;;4.50;99.90;;;;;;5053191;28;20589;-60
2021/12/19 08:06:06;;;;;;;11.00;3.78;;;4.40;99.90;;;;;;5057359;28;20060;-79
2021/12/19 08:08:32;;;;;;;8.75;0.90;;;4.40;99.90;;;;;;5073179;28;20059;-77
2021/12/19 08:13:44;;;;;;;0.90;0.90;;;4.50;99.90;;;;;;5073381;28;20028;-74
2021/12/19 08:16:10;;;;;;;2.53;2.42;;;4.50;99.90;;;;;;5072916;28;20029;-73
2021/12/19 08:18:36;;;;;;;0.13;0.13;;;4.60;99.90;;;;;;5071872;28;20496;-74
2021/12/19 08:21:02;;;;;;;1.65;1.60;;;4.60;99.90;;;;;;5072906;28;20024;-74
2021/12/19 08:23:28;;;;;;;2.03;1.15;;;4.70;99.90;;;;;;5072716;28;20111;-73
2021/12/19 08:25:54;;;;;;;1.58;1.48;;;4.80;99.90;;;;;;5071679;28;20441;-71
2021/12/19 08:28:20;;;;;;;0.95;0.95;;;4.80;99.90;;;;;;5071689;28;20094;-71
2021/12/19 08:30:46;;;;;;;4.38;2.85;;;4.80;99.90;;;;;;5071492;28;20107;-72
2021/12/19 08:33:12;;;;;;;0.30;0.30;;;4.70;99.90;;;;;;5071445;28;20115;-73
2021/12/19 08:35:38;;;;;;;0.10;0.10;;;4.80;99.90;;;;;;5070865;28;20082;-72
2021/12/19 08:38:04;;;;;;;3.13;2.15;;;4.80;99.90;;;;;;5072043;28;20078;-73
2021/12/19 08:40:32;;;;;;;0.57;0.57;;;4.80;99.90;;;;;;5071876;28;20098;-71
2021/12/19 08:42:58;;;;;;;2.38;2.17;;;4.80;99.90;;;;;;5071995;28;20032;-71
2021/12/19 08:45:24;;;;;;;0.50;0.50;;;4.80;99.90;;;;;;5070900;28;20040;-71
2021/12/19 08:47:50;;;;;;;0.20;0.20;;;4.90;99.90;;;;;;5072106;28;20044;-71
2021/12/19 08:50:18;;;;;;;0.75;0.75;;;4.90;99.90;;;;;;5072557;28;20056;-71
2021/12/19 08:52:44;;;;;;;0.25;0.25;;;4.90;99.90;;;;;;5072442;28;20031;-71
2021/12/19 08:55:11;;;;;;;0.45;0.45;;;5.00;99.90;;;;;;5072311;28;20063;-71
2021/12/19 08:57:38;;;;;;;0.32;0.32;;;5.00;99.90;;;;;;5072119;28;20082;-71
2021/12/19 09:00:13;;;;;;;0.20;0.20;;;5.10;99.90;;;;;;5072393;28;20470;-71
2021/12/19 09:02:43;;;;;;;0.25;0.25;;;5.00;99.90;;;;;;5087616;28;20532;-71
2021/12/19 09:05:09;;;;;;;0.10;0.10;;;5.20;99.90;;;;;;5071994;28;20040;-71
2021/12/19 09:07:35;;;;;;;0.05;0.05;;;5.10;99.90;;;;;;5071950;28;20044;-71
2021/12/19 09:10:03;;;;;;;2.30;1.25;;;5.10;99.90;;;;;;5087857;28;20473;-71
2021/12/19 09:12:28;;;;;;;0.40;0.40;;;5.00;99.90;;;;;;5072151;28;20111;-71
2021/12/19 09:14:54;;;;;;;1.58;1.48;;;5.00;99.90;;;;;;5071956;28;20116;-71
2021/12/19 09:17:20;;;;;;;0.20;0.20;;;5.00;99.90;;;;;;5070703;28;20055;-71
2021/12/19 09:19:47;;;;;;;0.20;0.20;;;5.00;99.90;;;;;;5070712;28;20025;-71
2021/12/19 09:22:13;;;;;;;0.73;0.73;;;5.00;99.90;;;;;;5070832;28;20393;-71
2021/12/19 09:24:39;;;;;;;0.10;0.10;;;5.00;99.90;;;;;;5070760;28;20025;-71
2021/12/19 09:27:07;;;;;;;0.40;0.40;;;5.10;99.90;;;;;;5071786;28;20035;-70
2021/12/19 09:29:34;;;;;;;0.00;0.00;;;5.10;99.90;;;;;;5070410;28;20025;-70
2021/12/19 09:32:00;;;;;;;0.52;0.52;;;5.10;99.90;;;;;;5070307;28;20105;-71
2021/12/19 09:34:28;;;;;;;1.20;0.65;;;5.20;99.90;;;;;;5071494;28;20095;-71
2021/12/19 09:36:56;;;;;;;1.98;1.85;;;5.20;99.90;;;;;;5071321;28;20041;-71
2021/12/19 09:39:24;;;;;;;0.10;0.10;;;5.20;99.90;;;;;;5070384;28;20036;-72
2021/12/19 09:41:59;;;;;;;0.10;0.10;;;5.20;99.90;;;;;;5070730;28;20068;-72
2021/12/19 09:44:25;;;;;;;0.38;0.38;;;5.20;99.90;;;;;;5071930;28;20166;-72
2021/12/19 09:46:54;;;;;;;0.10;0.10;;;5.20;99.90;;;;;;5070079;28;20099;-71
2021/12/19 09:49:22;;;;;;;0.10;0.10;;;5.20;99.90;;;;;;5070114;28;20044;-71
2021/12/19 09:51:49;;;;;;;0.20;0.20;;;5.30;99.90;;;;;;5071542;28;20036;-71
2021/12/19 09:54:16;;;;;;;1.52;0.63;;;5.30;99.90;;;;;;5070060;28;20396;-71
2021/12/19 09:56:42;;;;;;;3.03;1.10;;;5.30;99.90;;;;;;5071176;28;20388;-72
2021/12/19 09:59:15;;;;;;;0.13;0.13;;;5.20;99.90;;;;;;5071350;28;20028;-72
2021/12/19 10:01:42;;;;;;;0.10;0.10;;;5.30;99.90;;;;;;5071298;28;20482;-72
2021/12/19 10:04:29;;;;;;;0.00;0.00;;;5.30;99.90;;;;;;5070204;28;20043;-72
2021/12/19 10:07:15;;;;;;;0.95;0.95;;;5.30;99.90;;;;;;5071156;28;20036;-70
2021/12/19 10:10:24;;;;;;;0.28;0.28;;;5.30;99.90;;;;;;5071170;28;20562;-70
2021/12/19 10:12:58;;;;;;;1.27;1.17;;;5.30;99.90;;;;;;5072608;28;20032;-72
2021/12/19 10:15:28;;;;;;;0.30;0.30;;;5.20;99.90;;;;;;5071668;28;20047;-72
2021/12/19 10:18:15;;;;;;;0.23;0.23;;;5.30;99.90;;;;;;5071669;28;20032;-71
2021/12/19 10:20:48;;;;;;;0.57;0.57;;;5.30;99.90;;;;;;5069868;28;20028;-72
2021/12/19 10:23:40;;;;;;;0.00;0.00;;;5.20;99.90;;;;;;5071558;28;20036;-72
2021/12/19 10:26:11;;;;;;;0.68;0.68;;;5.20;99.90;;;;;;5070306;28;20028;-71
2021/12/19 10:28:56;;;;;;;0.10;0.10;;;5.30;99.90;;;;;;5069666;28;20036;-71
2021/12/19 10:31:25;;;;;;;0.22;0.22;;;5.30;99.90;;;;;;5071117;28;20075;-71
2021/12/19 10:33:52;;;;;;;3.30;1.65;;;5.30;99.90;;;;;;5069654;28;20064;-71
2021/12/19 10:36:19;;;;;;;0.10;0.10;;;5.20;99.90;;;;;;5070007;28;20054;-71
2021/12/19 10:38:52;;;;;;;0.10;0.10;;;5.30;99.90;;;;;;5069299;28;20497;-71
2021/12/19 10:41:31;;;;;;;1.73;1.38;;;5.40;99.90;;;;;;5063677;28;20112;-72
2021/12/19 10:44:03;;;;;;;0.82;0.82;;;5.30;99.90;;;;;;5034533;28;20036;-71
2021/12/19 10:46:38;;;;;;;0.30;0.30;;;5.30;99.90;;;;;;5049404;28;20124;-71
2021/12/19 10:49:20;;;;;;;1.45;0.55;;;5.30;99.90;;;;;;5051695;28;20466;-71
2021/12/19 10:51:49;;;;;;;0.10;0.10;;;5.30;99.90;;;;;;5038777;28;20032;-71
2021/12/19 10:54:15;;;;;;;0.10;0.10;;;5.40;99.90;;;;;;5054554;28;20580;-71
2021/12/19 10:56:41;;;;;;;0.10;0.10;;;5.30;99.90;;;;;;5054649;28;20060;-71
2021/12/19 10:59:16;;;;;;;0.63;0.63;;;5.30;99.90;;;;;;5053534;28;20048;-71
2021/12/19 11:01:51;;;;;;;0.20;0.20;;;5.30;99.90;;;;;;5054348;28;20147;-71
2021/12/19 11:04:21;;;;;;;0.75;0.75;;;5.30;99.90;;;;;;5054665;28;20029;-70
2021/12/19 11:06:59;;;;;;;0.98;0.90;;;5.20;99.90;;;;;;5054061;28;20493;-71
2021/12/19 11:09:34;;;;;;;0.30;0.30;;;5.30;99.90;;;;;;5053289;28;20510;-71
2021/12/19 11:12:05;;;;;;;0.10;0.10;;;5.30;99.90;;;;;;5054387;28;20046;-71
2021/12/19 11:14:40;;;;;;;0.10;0.10;;;5.30;99.90;;;;;;5054415;28;20036;-70
2021/12/19 11:17:26;;;;;;;0.10;0.10;;;5.30;99.90;;;;;;5054025;28;20033;-70
2021/12/19 11:19:57;;;;;;;0.10;0.10;;;5.30;99.90;;;;;;5052352;28;20041;-71
2021/12/19 11:22:27;;;;;;;1.25;1.20;;;5.40;99.90;;;;;;5052711;28;20482;-70
2021/12/19 11:25:01;;;;;;;0.00;0.00;;;5.30;99.90;;;;;;5052975;28;20048;-71
2021/12/19 11:27:29;;;;;;;0.20;0.20;;;5.30;99.90;;;;;;5054175;28;20243;-71
2021/12/19 11:29:57;;;;;;;0.73;0.73;;;5.40;99.90;;;;;;5052436;28;20078;-71
2021/12/19 11:32:51;;;;;;;0.28;0.28;;;5.30;99.90;;;;;;5053731;28;20033;-70
2021/12/19 11:35:22;;;;;;;0.10;0.10;;;5.40;99.90;;;;;;5052623;28;20028;-71
2021/12/19 11:37:59;;;;;;;1.50;1.40;;;5.30;99.90;;;;;;5052466;28;20040;-71
2021/12/19 11:40:30;;;;;;;0.13;0.13;;;5.30;99.90;;;;;;5036008;28;20499;-71
2021/12/19 11:43:09;;;;;;;0.10;0.10;;;5.30;99.90;;;;;;5036312;28;20059;-71
2021/12/19 11:45:54;;;;;;;0.32;0.32;;;5.20;99.90;;;;;;5053504;28;20140;-70
2021/12/19 11:48:28;;;;;;;0.20;0.20;;;5.20;99.90;;;;;;5052570;28;20432;-71
2021/12/19 11:50:58;;;;;;;0.52;0.52;;;5.30;99.90;;;;;;5053046;28;20557;-70
2021/12/19 11:53:25;;;;;;;0.15;0.15;;;5.20;99.90;;;;;;5051778;28;20033;-72
2021/12/19 11:56:16;;;;;;;0.10;0.10;;;5.30;99.90;;;;;;5051210;28;20033;-71
2021/12/19 11:58:50;;;;;;;0.17;0.17;;;5.30;99.90;;;;;;5053324;28;20136;-67
2021/12/19 12:01:33;;;;;;;0.30;0.30;;;5.20;99.90;;;;;;5053156;28;20509;-72
2021/12/19 12:04:18;;;;;;;0.05;0.05;;;5.20;99.90;;;;;;5053363;28;20029;-62
2021/12/19 12:06:56;;;;;;;0.10;0.10;;;5.30;99.90;;;;;;5053137;28;20477;-68
2021/12/19 12:09:38;;;;;;;0.15;0.15;;;5.30;99.90;;;;;;5052311;28;20040;-67
2021/12/19 12:12:12;;;;;;;0.38;0.38;;;5.30;99.90;;;;;;5036461;28;20052;-66
2021/12/19 12:14:56;;;;;;;0.43;0.43;;;5.30;99.90;;;;;;5051920;28;20045;-67
2021/12/19 12:17:37;;;;;;;0.10;0.10;;;5.20;99.90;;;;;;5051779;28;20029;-66
2021/12/19 12:20:20;;;;;;;0.00;0.00;;;5.20;99.90;;;;;;5051813;28;20037;-66
2021/12/19 12:22:57;;;;;;;0.70;0.70;;;5.20;99.90;;;;;;5051673;28;20044;-66
2021/12/19 12:25:28;;;;;;;0.20;0.20;;;5.20;99.90;;;;;;5051973;28;20027;-67
2021/12/19 12:28:03;;;;;;;0.10;0.10;;;5.20;99.90;;;;;;5052646;28;20385;-68
2021/12/19 12:30:36;;;;;;;0.15;0.15;;;5.20;99.90;;;;;;5051843;28;20029;-69
2021/12/19 12:33:14;;;;;;;0.10;0.10;;;5.20;99.90;;;;;;5052934;28;20436;-69
2021/12/19 12:35:43;;;;;;;0.00;0.00;;;5.20;99.90;;;;;;5051395;28;20032;-69
2021/12/19 12:38:10;;;;;;;0.10;0.10;;;5.30;99.90;;;;;;5052651;28;20541;-68
2021/12/19 12:40:50;;;;;;;0.73;0.73;;;5.20;99.90;;;;;;5052586;28;20128;-62
2021/12/19 12:43:32;;;;;;;3.70;0.57;;;5.30;99.90;;;;;;5056058;28;20555;-72
2021/12/19 12:46:07;;;;;;;0.25;0.25;;;5.20;99.90;;;;;;5070428;28;20471;-72
2021/12/19 12:49:06;;;;;;;0.95;0.95;;;5.20;99.90;;;;;;5064723;28;20055;-72
2021/12/19 12:51:50;;;;;;;31.45;14.40;;;5.20;99.90;;;;;;5052123;28;20414;-72
2021/12/19 12:54:20;;;;;;;0.22;0.22;;;5.20;99.90;;;;;;5051295;28;20069;-73
2021/12/19 12:56:51;;;;;;;0.10;0.10;;;5.20;99.90;;;;;;5051095;28;20123;-73
2021/12/19 12:59:28;;;;;;;1.30;1.20;;;5.20;99.90;;;;;;5034871;28;20037;-73
2021/12/19 13:02:09;;;;;;;0.30;0.30;;;5.20;99.90;;;;;;5052525;28;20108;-73
2021/12/19 13:04:36;;;;;;;0.80;0.80;;;5.30;99.90;;;;;;5052237;28;20116;-72
2021/12/19 13:07:11;;;;;;;1.58;1.15;;;5.20;99.90;;;;;;5050623;28;20040;-72
2021/12/19 13:09:46;;;;;;;0.40;0.40;;;5.20;99.90;;;;;;5051075;28;20508;-72
2021/12/19 13:12:25;;;;;;;0.65;0.65;;;5.20;99.90;;;;;;5051736;28;20033;-72
2021/12/19 13:14:55;;;;;;;0.10;0.10;;;5.20;99.90;;;;;;5034269;28;20539;-72
2021/12/19 13:17:40;;;;;;;1.45;1.35;;;5.20;99.90;;;;;;5052199;28;20103;-73
2021/12/19 13:20:11;;;;;;;0.20;0.20;;;5.20;99.90;;;;;;5051794;28;20073;-73
2021/12/19 13:22:58;;;;;;;0.45;0.45;;;5.20;99.90;;;;;;5051959;28;20068;-73
2021/12/19 13:25:39;;;;;;;0.25;0.25;;;5.30;99.90;;;;;;5050730;28;20064;-73
2021/12/19 13:28:08;;;;;;;;;;;5.20;99.90;;;;;;5035446;28;20051;-73
2021/12/19 13:30:41;;;;;;;0.60;0.60;;;5.30;99.90;;;;;;5052031;28;20258;-72
2021/12/19 13:33:16;;;;;;;1.17;1.08;;;5.40;99.90;;;;;;5051772;28;20029;-72
2021/12/19 13:35:48;;;;;;;0.10;0.10;;;5.30;99.90;;;;;;5050319;28;20120;-73
2021/12/19 13:38:29;;;;;;;0.05;0.05;;;5.30;99.90;;;;;;5051878;28;20028;-72
2021/12/19 13:41:06;;;;;;;0.20;0.20;;;5.60;99.90;;;;;;5050432;28;20405;-72
2021/12/19 13:43:37;;;;;;;0.10;0.10;;;5.50;99.90;;;;;;5051509;28;20035;-73
2021/12/19 13:46:09;;;;;;;0.08;0.08;;;5.50;99.90;;;;;;5033349;28;20044;-73
2021/12/19 13:48:51;;;;;;;0.00;0.00;;;5.40;99.90;;;;;;5051328;28;20044;-73
2021/12/19 13:51:28;;;;;;;;;;;5.40;99.90;;;;;;5050531;28;20039;-73
2021/12/19 13:54:01;;;;;;;2.25;1.83;;;5.40;99.90;;;;;;5050469;28;20384;-72
2021/12/19 13:56:30;;;;;;;0.20;0.20;;;5.40;99.90;;;;;;5033740;28;20036;-73
2021/12/19 13:59:03;;;;;;;2.58;1.50;;;5.50;99.90;;;;;;5051230;28;20041;-73
2021/12/19 14:01:39;;;;;;;0.28;0.28;;;5.50;99.90;;;;;;5051025;28;20126;-73
2021/12/19 14:04:28;;;;;;;0.10;0.10;;;5.50;99.90;;;;;;5051382;28;20192;-73
2021/12/19 14:07:06;;;;;;;0.30;0.30;;;5.50;99.90;;;;;;5057661;28;20533;-72
2021/12/19 14:09:43;;;;;;;0.10;0.10;;;5.50;99.90;;;;;;5070131;28;20037;-65
2021/12/19 14:12:27;;;;;;;0.20;0.20;;;5.50;99.90;;;;;;5070004;28;20104;-65
2021/12/19 14:14:53;;;;;;;0.10;0.10;;;5.50;99.90;;;;;;5055006;28;20107;-65
2021/12/19 14:17:29;;;;;;;0.30;0.30;;;5.50;99.90;;;;;;5071338;28;20158;-64
2021/12/19 14:20:00;;;;;;;1.88;0.68;;;5.50;99.90;;;;;;5071120;28;20040;-66
2021/12/19 14:22:26;;;;;;;0.32;0.32;;;5.50;99.90;;;;;;5069985;28;20108;-64